Terminal Aerodrome Forecast
Issued by NWS

Home | Current Version | Previous Version | Text Only | Print | Product List | Glossary On
Versions: 1 2 3 4 5 6 7 8 9 10 11 12 13 14 15 16 17 18 19 20 21 22 23 24 25 26 27 28 29 30 31
000
FTUS46 KLOX 302341
TAFOXR
TAF
KOXR 302341Z 3100/3124 26012KT P6SM SCT080
     FM310300 27006KT P6SM SCT120
     FM310600 VRB03KT P6SM SCT010 SCT120
     FM311500 27006KT P6SM SCT120
     FM311900 27012KT P6SM SCT120=

USA.gov is the U.S. government's official web portal to all federal, state and local government web resources and services.